アスタナ の空港の天気 - METARとTAF

アスタナ国際空港 ( UACC / TSE ) - カザフスタン アスタナ
飛行場実況気象(Metar)
観測時間06/18 00:30 QYZT (06/17 19:30 UTC)
風向・風速西 3m/s
視程10km以上
天気現象
なし
気温11℃
湿度94%
気圧1001hPa
METARUACC 171930Z 26003MPS CAVOK 11/10 Q1001 R04/0///70 NOSIG RMK QFE720/0960
過去の天気等 Google飛行場航空写真 Wunderground天気予報

過去48時間のMETAR

飛行場予報(TAF)
発表時間: 6/17 22:00 QYZT (6/17 17:00 UTC)
予報対象時間: 17日23時 QYZT ~ 18日23時 QYZT
風向・風速西南西 5m/s
視程10km以上
全天の4割程度の積乱雲 雲底高度 1220m
全天の8割程度の雲 雲底高度 3050m
18日1時 QYZT ~ 18日3時 QYZT に徐々に
風向・風速西北西 5m/s
18日1時 QYZT ~ 18日7時 QYZT に一時的に
視程3100m
天気現象弱いしゅう雨 もや
少しの雲 雲底高度 120m
18日1時 QYZT ~ 18日7時 QYZT に 確率 40% で一時的に
天気現象
18日7時 QYZT ~ 18日12時 QYZT に一時的に
視程5000m
天気現象弱いしゅう雨
全天の8割程度の積乱雲 雲底高度 610m
18日12時 QYZT ~ 18日17時 QYZT に一時的に
風向・風速西北西 6m/s 瞬間風速 11m/s
TAF UACC 171700Z 1718/1818 25005MPS 9999 SCT040CB BKN100 TX21/1810Z TN10/1723Z
BECMG 1720/1722 30005MPS
TEMPO 1720/1802 3100 -SHRA BR FEW004
PROB40 TEMPO 1720/1802 TS
TEMPO 1802/1807 5000 -SHRA BKN020CB
TEMPO 1807/1812 29006G11MPS